Terminal Aerodrome Forecast
Issued by NWS

Home | Current Version | Previous Version | Text Only | Print | Product List | Glossary On
Versions: 1 2 3 4 5 6 7 8 9 10 11 12 13 14 15 16 17 18 19
619
FTUS43 KBIS 240539
TAFJMS
TAF
KJMS 240539Z 2406/2506 31004KT P6SM OVC015
     FM241000 33005KT P6SM -SHSN BKN018 OVC035
     FM241400 35007KT P6SM OVC020
     FM250100 34010KT P6SM OVC015=

USA.gov is the U.S. government's official web portal to all federal, state and local government web resources and services.